sensor_id;sensor_type;location;lat;lon;timestamp;pressure;altitude;pressure_sealevel;temperature;humidity
75497;BME280;64074;47.540;19.072;2023-08-12T00:01:10;101218.91;;;18.18;61.74
75497;BME280;64074;47.540;19.072;2023-08-12T00:04:14;101225.22;;;18.10;61.88
75497;BME280;64074;47.540;19.072;2023-08-12T00:07:18;101217.28;;;18.08;61.85
75497;BME280;64074;47.540;19.072;2023-08-12T00:10:22;101221.81;;;18.22;61.53
75497;BME280;64074;47.540;19.072;2023-08-12T00:13:25;101223.75;;;18.21;61.10
75497;BME280;64074;47.540;19.072;2023-08-12T00:16:28;101213.75;;;18.08;61.67
75497;BME280;64074;47.540;19.072;2023-08-12T00:19:31;101212.66;;;17.92;62.25
75497;BME280;64074;47.540;19.072;2023-08-12T00:22:34;101214.25;;;17.75;63.28
75497;BME280;64074;47.540;19.072;2023-08-12T00:25:37;101209.41;;;17.90;62.64
75497;BME280;64074;47.540;19.072;2023-08-12T00:28:40;101212.63;;;17.74;63.07
75497;BME280;64074;47.540;19.072;2023-08-12T00:31:44;101212.94;;;17.99;62.51
75497;BME280;64074;47.540;19.072;2023-08-12T00:34:47;101215.06;;;18.10;62.50
75497;BME280;64074;47.540;19.072;2023-08-12T00:37:50;101215.19;;;18.05;62.46
75497;BME280;64074;47.540;19.072;2023-08-12T00:40:53;101209.56;;;17.93;62.92
75497;BME280;64074;47.540;19.072;2023-08-12T00:43:57;101211.69;;;17.88;63.08
75497;BME280;64074;47.540;19.072;2023-08-12T00:47:00;101210.22;;;17.90;63.33
75497;BME280;64074;47.540;19.072;2023-08-12T00:50:05;101211.97;;;18.03;62.73
75497;BME280;64074;47.540;19.072;2023-08-12T00:53:10;101217.47;;;18.03;63.06
75497;BME280;64074;47.540;19.072;2023-08-12T00:56:14;101206.81;;;17.67;64.76
75497;BME280;64074;47.540;19.072;2023-08-12T00:59:19;101208.75;;;17.75;64.60
75497;BME280;64074;47.540;19.072;2023-08-12T01:02:23;101202.91;;;17.60;65.35
75497;BME280;64074;47.540;19.072;2023-08-12T01:05:26;101196.34;;;17.78;64.81
75497;BME280;64074;47.540;19.072;2023-08-12T01:08:30;101209.06;;;17.82;64.77
75497;BME280;64074;47.540;19.072;2023-08-12T01:12:03;101215.84;;;17.76;65.18
75497;BME280;64074;47.540;19.072;2023-08-12T01:15:09;101212.94;;;17.64;65.96
75497;BME280;64074;47.540;19.072;2023-08-12T01:18:14;101213.59;;;17.78;65.63
75497;BME280;64074;47.540;19.072;2023-08-12T01:21:21;101216.81;;;17.72;65.73
75497;BME280;64074;47.540;19.072;2023-08-12T01:24:25;101221.97;;;17.82;65.86
75497;BME280;64074;47.540;19.072;2023-08-12T01:27:29;101225.19;;;17.67;65.88
75497;BME280;64074;47.540;19.072;2023-08-12T01:30:34;101221.94;;;17.47;66.52
75497;BME280;64074;47.540;19.072;2023-08-12T01:33:51;101236.75;;;17.38;67.64
75497;BME280;64074;47.540;19.072;2023-08-12T01:36:57;101233.69;;;17.39;67.45
75497;BME280;64074;47.540;19.072;2023-08-12T01:40:02;101232.00;;;17.12;67.92
75497;BME280;64074;47.540;19.072;2023-08-12T01:43:08;101230.88;;;17.13;68.33
75497;BME280;64074;47.540;19.072;2023-08-12T01:46:12;101223.09;;;17.07;68.42
75497;BME280;64074;47.540;19.072;2023-08-12T01:49:16;101225.66;;;16.95;68.78
75497;BME280;64074;47.540;19.072;2023-08-12T01:52:19;101223.69;;;16.86;68.58
75497;BME280;64074;47.540;19.072;2023-08-12T01:55:22;101220.34;;;16.98;68.24
75497;BME280;64074;47.540;19.072;2023-08-12T01:58:25;101220.03;;;17.08;67.51
75497;BME280;64074;47.540;19.072;2023-08-12T02:01:33;101223.47;;;17.14;67.00
75497;BME280;64074;47.540;19.072;2023-08-12T02:04:37;101223.25;;;17.02;67.38
75497;BME280;64074;47.540;19.072;2023-08-12T02:07:40;101215.06;;;17.10;67.12
75497;BME280;64074;47.540;19.072;2023-08-12T02:10:44;101215.91;;;17.28;66.68
75497;BME280;64074;47.540;19.072;2023-08-12T02:13:48;101215.91;;;17.28;66.58
75497;BME280;64074;47.540;19.072;2023-08-12T02:16:51;101210.78;;;17.35;66.39
75497;BME280;64074;47.540;19.072;2023-08-12T02:19:54;101211.75;;;17.39;66.14
75497;BME280;64074;47.540;19.072;2023-08-12T02:22:58;101221.06;;;17.30;66.13
75497;BME280;64074;47.540;19.072;2023-08-12T02:26:01;101204.19;;;17.36;66.34
75497;BME280;64074;47.540;19.072;2023-08-12T02:29:06;101215.31;;;17.40;66.31
75497;BME280;64074;47.540;19.072;2023-08-12T02:32:09;101206.25;;;17.31;66.53
75497;BME280;64074;47.540;19.072;2023-08-12T02:35:11;101201.13;;;17.38;66.48
75497;BME280;64074;47.540;19.072;2023-08-12T02:38:15;101206.13;;;17.36;66.93
75497;BME280;64074;47.540;19.072;2023-08-12T02:41:18;101215.41;;;17.17;67.54
75497;BME280;64074;47.540;19.072;2023-08-12T02:44:21;101210.59;;;17.32;67.00
75497;BME280;64074;47.540;19.072;2023-08-12T02:47:25;101203.53;;;17.39;66.79
75497;BME280;64074;47.540;19.072;2023-08-12T02:50:29;101218.81;;;17.23;67.11
75497;BME280;64074;47.540;19.072;2023-08-12T02:53:33;101203.34;;;17.27;66.83
75497;BME280;64074;47.540;19.072;2023-08-12T02:56:36;101220.09;;;17.34;66.66
75497;BME280;64074;47.540;19.072;2023-08-12T02:59:40;101216.38;;;17.21;66.95
75497;BME280;64074;47.540;19.072;2023-08-12T03:02:43;101210.25;;;17.25;67.02
75497;BME280;64074;47.540;19.072;2023-08-12T03:05:48;101215.44;;;17.26;67.09
75497;BME280;64074;47.540;19.072;2023-08-12T03:08:51;101211.25;;;17.29;67.12
75497;BME280;64074;47.540;19.072;2023-08-12T03:11:54;101204.47;;;17.26;67.04
75497;BME280;64074;47.540;19.072;2023-08-12T03:14:59;101209.28;;;17.20;67.32
75497;BME280;64074;47.540;19.072;2023-08-12T03:18:03;101209.94;;;17.17;67.27
75497;BME280;64074;47.540;19.072;2023-08-12T03:21:09;101212.03;;;17.29;66.40
75497;BME280;64074;47.540;19.072;2023-08-12T03:24:14;101210.78;;;17.35;66.21
75497;BME280;64074;47.540;19.072;2023-08-12T03:27:18;101218.69;;;17.37;66.08
75497;BME280;64074;47.540;19.072;2023-08-12T03:30:22;101222.03;;;17.25;66.73
75497;BME280;64074;47.540;19.072;2023-08-12T03:33:25;101227.19;;;17.18;67.68
75497;BME280;64074;47.540;19.072;2023-08-12T03:36:30;101229.69;;;16.97;69.19
75497;BME280;64074;47.540;19.072;2023-08-12T03:39:33;101221.44;;;16.88;70.41
75497;BME280;64074;47.540;19.072;2023-08-12T03:42:36;101231.63;;;16.97;69.54
75497;BME280;64074;47.540;19.072;2023-08-12T03:45:43;101235.31;;;16.92;69.80
75497;BME280;64074;47.540;19.072;2023-08-12T03:48:48;101234.66;;;16.95;69.73
75497;BME280;64074;47.540;19.072;2023-08-12T03:51:52;101242.25;;;16.98;69.74
75497;BME280;64074;47.540;19.072;2023-08-12T03:54:55;101230.00;;;16.96;69.77
75497;BME280;64074;47.540;19.072;2023-08-12T03:58:00;101235.06;;;17.11;69.30
75497;BME280;64074;47.540;19.072;2023-08-12T04:01:05;101243.94;;;17.16;69.15
75497;BME280;64074;47.540;19.072;2023-08-12T04:04:09;101244.44;;;17.18;69.13
75497;BME280;64074;47.540;19.072;2023-08-12T04:07:16;101250.72;;;17.19;69.40
75497;BME280;64074;47.540;19.072;2023-08-12T04:10:19;101241.75;;;16.96;70.05
75497;BME280;64074;47.540;19.072;2023-08-12T04:13:22;101252.13;;;16.77;70.32
75497;BME280;64074;47.540;19.072;2023-08-12T04:16:26;101251.97;;;16.73;70.81
75497;BME280;64074;47.540;19.072;2023-08-12T04:19:29;101254.25;;;16.80;70.64
75497;BME280;64074;47.540;19.072;2023-08-12T04:22:32;101255.53;;;16.82;70.90
75497;BME280;64074;47.540;19.072;2023-08-12T04:25:36;101259.09;;;16.83;70.91
75497;BME280;64074;47.540;19.072;2023-08-12T04:28:40;101260.19;;;16.73;71.97
75497;BME280;64074;47.540;19.072;2023-08-12T04:31:44;101256.97;;;16.80;72.03
75497;BME280;64074;47.540;19.072;2023-08-12T04:34:47;101260.66;;;16.75;71.75
75497;BME280;64074;47.540;19.072;2023-08-12T04:37:50;101268.97;;;16.92;71.08
75497;BME280;64074;47.540;19.072;2023-08-12T04:40:53;101269.63;;;16.89;70.87
75497;BME280;64074;47.540;19.072;2023-08-12T04:43:57;101259.78;;;17.28;69.07
75497;BME280;64074;47.540;19.072;2023-08-12T04:47:04;101271.09;;;16.96;70.36
75497;BME280;64074;47.540;19.072;2023-08-12T04:50:11;101272.88;;;16.69;72.02
75497;BME280;64074;47.540;19.072;2023-08-12T04:53:15;101272.59;;;16.79;71.88
75497;BME280;64074;47.540;19.072;2023-08-12T04:56:18;101270.75;;;16.88;71.47
75497;BME280;64074;47.540;19.072;2023-08-12T04:59:21;101275.41;;;16.88;71.69
75497;BME280;64074;47.540;19.072;2023-08-12T05:02:25;101269.59;;;17.20;70.14
75497;BME280;64074;47.540;19.072;2023-08-12T05:05:30;101277.38;;;17.36;68.48
75497;BME280;64074;47.540;19.072;2023-08-12T05:08:33;101274.34;;;17.46;68.49
75497;BME280;64074;47.540;19.072;2023-08-12T05:11:36;101274.03;;;17.47;67.93
75497;BME280;64074;47.540;19.072;2023-08-12T05:14:40;101274.19;;;17.60;68.05
75497;BME280;64074;47.540;19.072;2023-08-12T05:17:43;101262.13;;;17.61;67.54
75497;BME280;64074;47.540;19.072;2023-08-12T05:20:51;101279.75;;;17.68;67.39
75497;BME280;64074;47.540;19.072;2023-08-12T05:23:54;101276.50;;;17.66;66.94
75497;BME280;64074;47.540;19.072;2023-08-12T05:26:58;101269.09;;;17.75;66.89
75497;BME280;64074;47.540;19.072;2023-08-12T05:30:02;101281.19;;;17.74;66.90
75497;BME280;64074;47.540;19.072;2023-08-12T05:33:05;101286.84;;;17.78;66.55
75497;BME280;64074;47.540;19.072;2023-08-12T05:36:09;101281.84;;;17.71;66.51
75497;BME280;64074;47.540;19.072;2023-08-12T05:39:13;101276.06;;;17.90;65.68
75497;BME280;64074;47.540;19.072;2023-08-12T05:42:18;101274.63;;;17.93;65.51
75497;BME280;64074;47.540;19.072;2023-08-12T05:45:21;101271.88;;;17.93;65.52
75497;BME280;64074;47.540;19.072;2023-08-12T05:48:23;101275.91;;;17.95;65.24
75497;BME280;64074;47.540;19.072;2023-08-12T05:51:26;101273.00;;;18.18;64.76
75497;BME280;64074;47.540;19.072;2023-08-12T05:54:32;101265.56;;;18.35;64.32
75497;BME280;64074;47.540;19.072;2023-08-12T05:57:36;101275.56;;;18.49;63.75
75497;BME280;64074;47.540;19.072;2023-08-12T06:00:39;101266.19;;;18.67;63.10
75497;BME280;64074;47.540;19.072;2023-08-12T06:03:43;101265.53;;;18.70;63.72
75497;BME280;64074;47.540;19.072;2023-08-12T06:06:46;101265.88;;;18.68;62.50
75497;BME280;64074;47.540;19.072;2023-08-12T06:09:50;101272.28;;;18.90;62.45
75497;BME280;64074;47.540;19.072;2023-08-12T06:12:53;101261.75;;;18.83;62.54
75497;BME280;64074;47.540;19.072;2023-08-12T06:15:56;101266.97;;;18.76;63.07
75497;BME280;64074;47.540;19.072;2023-08-12T06:19:01;101267.00;;;18.50;64.34
75497;BME280;64074;47.540;19.072;2023-08-12T06:22:04;101261.34;;;18.64;63.54
75497;BME280;64074;47.540;19.072;2023-08-12T06:25:08;101275.38;;;18.54;63.54
75497;BME280;64074;47.540;19.072;2023-08-12T06:28:11;101269.75;;;18.50;62.74
75497;BME280;64074;47.540;19.072;2023-08-12T06:31:14;101265.25;;;18.63;62.57
75497;BME280;64074;47.540;19.072;2023-08-12T06:34:19;101267.81;;;18.68;62.44
75497;BME280;64074;47.540;19.072;2023-08-12T06:37:22;101267.03;;;19.05;60.90
75497;BME280;64074;47.540;19.072;2023-08-12T06:40:25;101270.22;;;19.16;60.61
75497;BME280;64074;47.540;19.072;2023-08-12T06:43:30;101256.44;;;19.25;59.62
75497;BME280;64074;47.540;19.072;2023-08-12T06:46:33;101261.38;;;19.40;59.02
75497;BME280;64074;47.540;19.072;2023-08-12T06:49:37;101258.69;;;19.61;58.77
75497;BME280;64074;47.540;19.072;2023-08-12T06:52:40;101251.91;;;19.58;57.42
75497;BME280;64074;47.540;19.072;2023-08-12T06:55:46;101264.94;;;19.70;56.61
75497;BME280;64074;47.540;19.072;2023-08-12T06:58:49;101256.09;;;19.85;56.62
75497;BME280;64074;47.540;19.072;2023-08-12T07:01:53;101259.31;;;19.87;56.23
75497;BME280;64074;47.540;19.072;2023-08-12T07:04:55;101261.56;;;20.06;56.68
75497;BME280;64074;47.540;19.072;2023-08-12T07:07:59;101265.47;;;20.05;56.01
75497;BME280;64074;47.540;19.072;2023-08-12T07:11:03;101261.53;;;20.15;56.69
75497;BME280;64074;47.540;19.072;2023-08-12T07:14:07;101257.88;;;20.23;56.50
75497;BME280;64074;47.540;19.072;2023-08-12T07:17:10;101263.63;;;20.30;55.96
75497;BME280;64074;47.540;19.072;2023-08-12T07:20:15;101256.34;;;20.34;55.42
75497;BME280;64074;47.540;19.072;2023-08-12T07:23:18;101255.72;;;20.49;55.41
75497;BME280;64074;47.540;19.072;2023-08-12T07:26:21;101254.84;;;20.37;55.47
75497;BME280;64074;47.540;19.072;2023-08-12T07:29:25;101263.13;;;20.70;54.49
75497;BME280;64074;47.540;19.072;2023-08-12T07:32:28;101267.97;;;20.85;54.35
75497;BME280;64074;47.540;19.072;2023-08-12T07:35:32;101257.19;;;21.04;55.14
75497;BME280;64074;47.540;19.072;2023-08-12T07:38:36;101260.53;;;21.10;53.94
75497;BME280;64074;47.540;19.072;2023-08-12T07:41:39;101261.81;;;21.25;53.67
75497;BME280;64074;47.540;19.072;2023-08-12T07:44:43;101262.38;;;21.18;53.24
75497;BME280;64074;47.540;19.072;2023-08-12T07:47:46;101256.88;;;21.55;53.19
75497;BME280;64074;47.540;19.072;2023-08-12T07:50:57;101255.81;;;21.71;52.02
75497;BME280;64074;47.540;19.072;2023-08-12T07:54:01;101256.97;;;21.70;51.22
75497;BME280;64074;47.540;19.072;2023-08-12T07:57:04;101247.88;;;21.82;50.69
75497;BME280;64074;47.540;19.072;2023-08-12T08:00:08;101253.78;;;21.96;49.89
75497;BME280;64074;47.540;19.072;2023-08-12T08:03:13;101248.72;;;21.98;49.20
75497;BME280;64074;47.540;19.072;2023-08-12T08:06:16;101256.56;;;22.08;49.73
75497;BME280;64074;47.540;19.072;2023-08-12T08:09:19;101257.00;;;21.98;48.97
75497;BME280;64074;47.540;19.072;2023-08-12T08:12:22;101245.53;;;22.24;48.61
75497;BME280;64074;47.540;19.072;2023-08-12T08:15:25;101242.19;;;22.31;47.96
75497;BME280;64074;47.540;19.072;2023-08-12T08:18:29;101238.03;;;22.53;49.05
75497;BME280;64074;47.540;19.072;2023-08-12T08:21:35;101240.91;;;22.56;49.24
75497;BME280;64074;47.540;19.072;2023-08-12T08:24:38;101242.88;;;22.56;47.66
75497;BME280;64074;47.540;19.072;2023-08-12T08:27:41;101244.56;;;22.60;47.62
75497;BME280;64074;47.540;19.072;2023-08-12T08:30:46;101242.22;;;22.90;47.25
75497;BME280;64074;47.540;19.072;2023-08-12T08:33:50;101244.03;;;22.70;47.81
75497;BME280;64074;47.540;19.072;2023-08-12T08:36:52;101243.38;;;23.05;47.06
75497;BME280;64074;47.540;19.072;2023-08-12T08:39:58;101238.38;;;22.95;46.76
75497;BME280;64074;47.540;19.072;2023-08-12T08:43:02;101233.59;;;23.27;46.41
75497;BME280;64074;47.540;19.072;2023-08-12T08:46:10;101238.59;;;23.37;46.24
75497;BME280;64074;47.540;19.072;2023-08-12T08:49:18;101239.78;;;23.36;46.12
75497;BME280;64074;47.540;19.072;2023-08-12T08:52:24;101237.06;;;23.40;45.30
75497;BME280;64074;47.540;19.072;2023-08-12T08:55:27;101231.97;;;23.57;45.36
75497;BME280;64074;47.540;19.072;2023-08-12T08:58:30;101230.53;;;23.63;44.11
75497;BME280;64074;47.540;19.072;2023-08-12T09:01:36;101232.28;;;23.72;43.80
75497;BME280;64074;47.540;19.072;2023-08-12T09:04:39;101235.56;;;23.77;43.13
75497;BME280;64074;47.540;19.072;2023-08-12T09:07:43;101228.44;;;23.96;42.68
75497;BME280;64074;47.540;19.072;2023-08-12T09:10:48;101234.13;;;24.03;42.61
75497;BME280;64074;47.540;19.072;2023-08-12T09:13:52;101226.25;;;24.05;43.21
75497;BME280;64074;47.540;19.072;2023-08-12T09:16:56;101223.41;;;24.01;42.55
75497;BME280;64074;47.540;19.072;2023-08-12T09:20:00;101220.06;;;24.31;42.39
75497;BME280;64074;47.540;19.072;2023-08-12T09:23:04;101223.66;;;24.31;41.47
75497;BME280;64074;47.540;19.072;2023-08-12T09:26:19;101215.59;;;24.45;42.11
75497;BME280;64074;47.540;19.072;2023-08-12T09:29:23;101213.31;;;24.51;42.87
75497;BME280;64074;47.540;19.072;2023-08-12T09:32:29;101219.13;;;24.65;42.48
75497;BME280;64074;47.540;19.072;2023-08-12T09:35:38;101215.91;;;24.63;42.37
75497;BME280;64074;47.540;19.072;2023-08-12T09:38:43;101213.31;;;24.74;42.23
75497;BME280;64074;47.540;19.072;2023-08-12T09:41:46;101208.50;;;24.71;42.42
75497;BME280;64074;47.540;19.072;2023-08-12T09:44:49;101197.91;;;24.53;42.64
75497;BME280;64074;47.540;19.072;2023-08-12T09:47:55;101201.47;;;25.00;42.28
75497;BME280;64074;47.540;19.072;2023-08-12T09:50:58;101199.22;;;25.05;42.67
75497;BME280;64074;47.540;19.072;2023-08-12T09:54:02;101202.72;;;25.02;42.00
75497;BME280;64074;47.540;19.072;2023-08-12T09:57:05;101196.13;;;25.10;41.79
75497;BME280;64074;47.540;19.072;2023-08-12T10:00:12;101198.84;;;25.07;41.63
75497;BME280;64074;47.540;19.072;2023-08-12T10:03:20;101191.13;;;25.23;41.45
75497;BME280;64074;47.540;19.072;2023-08-12T10:06:24;101181.47;;;25.40;41.73
75497;BME280;64074;47.540;19.072;2023-08-12T10:09:28;101177.00;;;25.32;40.81
75497;BME280;64074;47.540;19.072;2023-08-12T10:12:33;101170.41;;;25.43;41.15
75497;BME280;64074;47.540;19.072;2023-08-12T10:15:37;101180.44;;;25.52;40.98
75497;BME280;64074;47.540;19.072;2023-08-12T10:18:41;101173.72;;;25.26;40.11
75497;BME280;64074;47.540;19.072;2023-08-12T10:21:45;101171.72;;;25.80;39.54
75497;BME280;64074;47.540;19.072;2023-08-12T10:24:49;101165.66;;;26.04;38.93
75497;BME280;64074;47.540;19.072;2023-08-12T10:27:53;101163.34;;;26.13;37.00
75497;BME280;64074;47.540;19.072;2023-08-12T10:30:56;101166.91;;;26.10;36.33
75497;BME280;64074;47.540;19.072;2023-08-12T10:34:01;101159.44;;;26.21;36.66
75497;BME280;64074;47.540;19.072;2023-08-12T10:37:05;101166.66;;;26.26;35.40
75497;BME280;64074;47.540;19.072;2023-08-12T10:40:21;101151.63;;;26.30;34.99
75497;BME280;64074;47.540;19.072;2023-08-12T10:43:26;101146.59;;;26.06;32.92
75497;BME280;64074;47.540;19.072;2023-08-12T10:46:34;101151.69;;;26.34;33.91
75497;BME280;64074;47.540;19.072;2023-08-12T10:49:42;101150.41;;;26.28;34.38
75497;BME280;64074;47.540;19.072;2023-08-12T10:52:46;101141.22;;;26.24;32.94
75497;BME280;64074;47.540;19.072;2023-08-12T10:55:50;101136.88;;;26.71;30.74
75497;BME280;64074;47.540;19.072;2023-08-12T10:58:56;101137.00;;;26.85;30.88
75497;BME280;64074;47.540;19.072;2023-08-12T11:05:37;101128.03;;;27.09;30.95
75497;BME280;64074;47.540;19.072;2023-08-12T11:08:47;101134.13;;;27.29;30.15
75497;BME280;64074;47.540;19.072;2023-08-12T11:11:58;101125.91;;;27.61;30.49
75497;BME280;64074;47.540;19.072;2023-08-12T11:15:03;101119.66;;;27.89;29.67
75497;BME280;64074;47.540;19.072;2023-08-12T11:18:12;101116.91;;;28.07;30.54
75497;BME280;64074;47.540;19.072;2023-08-12T11:21:16;101112.59;;;28.52;30.78
75497;BME280;64074;47.540;19.072;2023-08-12T11:24:25;101117.38;;;28.62;31.56
75497;BME280;64074;47.540;19.072;2023-08-12T11:27:28;101108.59;;;28.57;31.17
75497;BME280;64074;47.540;19.072;2023-08-12T11:30:32;101104.19;;;28.80;31.08
75497;BME280;64074;47.540;19.072;2023-08-12T11:33:38;101107.00;;;28.66;31.32
75497;BME280;64074;47.540;19.072;2023-08-12T11:36:42;101101.78;;;29.07;32.19
75497;BME280;64074;47.540;19.072;2023-08-12T11:39:45;101103.72;;;29.21;30.84
75497;BME280;64074;47.540;19.072;2023-08-12T11:42:50;101096.63;;;28.88;30.99
75497;BME280;64074;47.540;19.072;2023-08-12T11:45:55;101089.38;;;29.16;31.36
75497;BME280;64074;47.540;19.072;2023-08-12T11:48:59;101102.59;;;29.04;30.48
75497;BME280;64074;47.540;19.072;2023-08-12T11:52:02;101097.69;;;29.33;31.96
75497;BME280;64074;47.540;19.072;2023-08-12T11:55:07;101091.97;;;29.65;30.18
75497;BME280;64074;47.540;19.072;2023-08-12T11:58:13;101088.41;;;29.61;30.70
75497;BME280;64074;47.540;19.072;2023-08-12T12:01:17;101090.22;;;29.93;29.62
75497;BME280;64074;47.540;19.072;2023-08-12T12:04:22;101089.81;;;29.94;29.52
75497;BME280;64074;47.540;19.072;2023-08-12T12:07:25;101077.28;;;30.17;28.93
75497;BME280;64074;47.540;19.072;2023-08-12T12:10:32;101070.38;;;29.73;29.80
75497;BME280;64074;47.540;19.072;2023-08-12T12:13:37;101068.03;;;30.23;28.56
75497;BME280;64074;47.540;19.072;2023-08-12T12:19:44;101061.19;;;32.52;26.26
75497;BME280;64074;47.540;19.072;2023-08-12T12:22:48;101054.47;;;32.46;26.27
75497;BME280;64074;47.540;19.072;2023-08-12T12:26:00;101052.63;;;33.02;25.28
75497;BME280;64074;47.540;19.072;2023-08-12T12:29:05;101050.03;;;32.92;24.91
75497;BME280;64074;47.540;19.072;2023-08-12T12:32:10;101044.63;;;33.41;25.16
75497;BME280;64074;47.540;19.072;2023-08-12T12:35:13;101039.63;;;34.49;23.45
75497;BME280;64074;47.540;19.072;2023-08-12T12:38:17;101036.66;;;34.08;24.21
75497;BME280;64074;47.540;19.072;2023-08-12T12:41:20;101041.56;;;34.04;23.47
75497;BME280;64074;47.540;19.072;2023-08-12T12:44:24;101028.41;;;34.62;22.92
75497;BME280;64074;47.540;19.072;2023-08-12T12:47:27;101032.22;;;34.55;23.03
75497;BME280;64074;47.540;19.072;2023-08-12T12:50:30;101032.03;;;34.92;22.67
75497;BME280;64074;47.540;19.072;2023-08-12T12:53:33;101026.59;;;34.39;23.08
75497;BME280;64074;47.540;19.072;2023-08-12T12:56:36;101021.78;;;34.69;22.83
75497;BME280;64074;47.540;19.072;2023-08-12T12:59:40;101021.88;;;34.94;22.31
75497;BME280;64074;47.540;19.072;2023-08-12T13:02:45;101025.16;;;34.93;22.82
75497;BME280;64074;47.540;19.072;2023-08-12T13:05:49;101016.59;;;35.38;22.94
75497;BME280;64074;47.540;19.072;2023-08-12T13:08:54;101012.03;;;37.30;21.16
75497;BME280;64074;47.540;19.072;2023-08-12T13:11:56;101004.88;;;35.78;21.75
75497;BME280;64074;47.540;19.072;2023-08-12T13:15:00;101003.59;;;36.04;21.37
75497;BME280;64074;47.540;19.072;2023-08-12T13:18:05;101005.13;;;37.40;20.34
75497;BME280;64074;47.540;19.072;2023-08-12T13:21:08;100998.88;;;36.92;21.17
75497;BME280;64074;47.540;19.072;2023-08-12T13:24:11;101000.72;;;36.29;22.61
75497;BME280;64074;47.540;19.072;2023-08-12T13:27:14;101000.19;;;36.56;21.61
75497;BME280;64074;47.540;19.072;2023-08-12T13:30:19;100991.69;;;37.53;20.52
75497;BME280;64074;47.540;19.072;2023-08-12T13:33:23;100989.28;;;37.92;20.72
75497;BME280;64074;47.540;19.072;2023-08-12T13:36:27;100994.53;;;38.02;20.09
75497;BME280;64074;47.540;19.072;2023-08-12T13:39:30;100987.16;;;38.78;19.71
75497;BME280;64074;47.540;19.072;2023-08-12T13:42:33;100987.63;;;38.58;20.31
75497;BME280;64074;47.540;19.072;2023-08-12T13:45:36;100980.38;;;37.22;21.49
75497;BME280;64074;47.540;19.072;2023-08-12T13:48:39;100977.59;;;37.31;21.03
75497;BME280;64074;47.540;19.072;2023-08-12T13:51:44;100983.91;;;37.35;20.87
75497;BME280;64074;47.540;19.072;2023-08-12T13:54:48;100975.97;;;36.33;22.16
75497;BME280;64074;47.540;19.072;2023-08-12T13:57:51;100969.72;;;37.26;21.54
75497;BME280;64074;47.540;19.072;2023-08-12T14:00:55;100963.81;;;37.82;21.81
75497;BME280;64074;47.540;19.072;2023-08-12T14:03:58;100954.44;;;38.50;20.90
75497;BME280;64074;47.540;19.072;2023-08-12T14:07:01;100961.00;;;39.34;19.19
75497;BME280;64074;47.540;19.072;2023-08-12T14:10:07;100957.09;;;38.62;20.43
75497;BME280;64074;47.540;19.072;2023-08-12T14:13:11;100954.38;;;38.86;20.81
75497;BME280;64074;47.540;19.072;2023-08-12T14:16:15;100950.75;;;38.86;20.79
75497;BME280;64074;47.540;19.072;2023-08-12T14:19:20;100951.47;;;39.56;19.10
75497;BME280;64074;47.540;19.072;2023-08-12T14:22:23;100952.63;;;37.79;20.33
75497;BME280;64074;47.540;19.072;2023-08-12T14:25:26;100952.81;;;38.12;20.12
75497;BME280;64074;47.540;19.072;2023-08-12T14:28:29;100947.22;;;39.18;19.28
75497;BME280;64074;47.540;19.072;2023-08-12T14:31:33;100937.94;;;39.51;19.09
75497;BME280;64074;47.540;19.072;2023-08-12T14:34:36;100935.44;;;39.44;19.60
75497;BME280;64074;47.540;19.072;2023-08-12T14:37:40;100940.16;;;40.04;18.75
75497;BME280;64074;47.540;19.072;2023-08-12T14:40:47;100931.75;;;38.40;20.01
75497;BME280;64074;47.540;19.072;2023-08-12T14:43:51;100926.34;;;36.45;22.23
75497;BME280;64074;47.540;19.072;2023-08-12T14:46:54;100932.97;;;37.35;21.48
75497;BME280;64074;47.540;19.072;2023-08-12T14:49:57;100926.75;;;36.22;22.62
75497;BME280;64074;47.540;19.072;2023-08-12T14:53:00;100923.94;;;35.74;23.28
75497;BME280;64074;47.540;19.072;2023-08-12T14:56:03;100918.41;;;34.24;25.34
75497;BME280;64074;47.540;19.072;2023-08-12T14:59:07;100917.41;;;34.02;25.49
75497;BME280;64074;47.540;19.072;2023-08-12T15:02:10;100924.97;;;33.20;27.01
75497;BME280;64074;47.540;19.072;2023-08-12T15:05:13;100916.47;;;32.28;27.70
75497;BME280;64074;47.540;19.072;2023-08-12T15:08:16;100914.38;;;32.32;27.99
75497;BME280;64074;47.540;19.072;2023-08-12T15:11:19;100910.81;;;31.85;28.73
75497;BME280;64074;47.540;19.072;2023-08-12T15:14:22;100899.59;;;31.34;28.91
75497;BME280;64074;47.540;19.072;2023-08-12T15:17:25;100889.81;;;31.19;29.57
75497;BME280;64074;47.540;19.072;2023-08-12T15:20:28;100899.06;;;31.66;29.69
75497;BME280;64074;47.540;19.072;2023-08-12T15:23:34;100888.97;;;31.22;29.86
75497;BME280;64074;47.540;19.072;2023-08-12T15:26:37;100885.38;;;30.91;30.61
75497;BME280;64074;47.540;19.072;2023-08-12T15:29:41;100878.28;;;31.40;29.86
75497;BME280;64074;47.540;19.072;2023-08-12T15:32:44;100885.97;;;31.60;30.00
75497;BME280;64074;47.540;19.072;2023-08-12T15:35:47;100882.38;;;31.59;30.84
75497;BME280;64074;47.540;19.072;2023-08-12T15:38:51;100870.84;;;31.30;30.79
75497;BME280;64074;47.540;19.072;2023-08-12T15:41:55;100878.03;;;31.31;30.98
75497;BME280;64074;47.540;19.072;2023-08-12T15:44:58;100876.03;;;30.74;30.92
75497;BME280;64074;47.540;19.072;2023-08-12T15:48:02;100877.63;;;30.72;31.13
75497;BME280;64074;47.540;19.072;2023-08-12T15:51:06;100875.34;;;30.29;31.66
75497;BME280;64074;47.540;19.072;2023-08-12T15:54:10;100875.94;;;30.13;31.41
75497;BME280;64074;47.540;19.072;2023-08-12T15:57:13;100872.84;;;30.00;32.22